In Rescue
 
Open Full Screen Window  High Contrast Mode
Wind Gusting 00 knots
08
January 20, 2022 8:07 AM EST
Weather Information
Wind Direction
  340 °
Wind Speed
  08 kt (9 mph)
Wind Gust
  00 kt (0 mph)
Altimeter
30.36 in
Visibility
10 SM
Temperature
-07° C
19° F
Dewpoint
-14° C
F
Humidity
58%
1hr Rain Fall
00.00 in.
24hr Rain Fall
00.00 in.
Sky Condition
Overcast @ 3,400 ft
VFR

METAR KDLZ 201307Z AUTO 34008KT 10SM OVC034 M07/M14 A3036 RMK AO2

FAA Disclaimer: The data displayed is for advisory purposes only and is not to be used for flight planning or operations.